createdAt,value
2018-10-07T00:02:29.315Z,13.66
2018-10-07T00:05:33.697Z,13.68
2018-10-07T00:08:38.124Z,13.69
2018-10-07T00:11:43.180Z,13.64
2018-10-07T00:14:47.506Z,13.63
2018-10-07T00:17:52.613Z,13.65
2018-10-07T00:20:56.973Z,13.69
2018-10-07T00:24:01.382Z,13.64
2018-10-07T00:27:05.839Z,13.64
2018-10-07T00:30:10.144Z,13.62
2018-10-07T00:33:14.575Z,13.61
2018-10-07T00:36:18.879Z,13.64
2018-10-07T00:39:23.258Z,13.60
2018-10-07T00:42:27.545Z,13.56
2018-10-07T00:45:32.314Z,13.61
2018-10-07T00:48:36.678Z,13.63
2018-10-07T00:51:41.003Z,13.65
2018-10-07T00:54:45.296Z,13.67
2018-10-07T00:57:49.648Z,13.66
2018-10-07T01:00:54.097Z,13.65
2018-10-07T01:03:58.525Z,13.59
2018-10-07T01:07:02.811Z,13.64
2018-10-07T01:10:07.195Z,13.61
2018-10-07T01:13:11.501Z,13.59
2018-10-07T01:16:15.934Z,13.60
2018-10-07T01:19:20.304Z,13.61
2018-10-07T01:22:24.597Z,13.56
2018-10-07T01:25:36.868Z,13.55
2018-10-07T01:28:41.216Z,13.54
2018-10-07T01:31:46.557Z,13.53
2018-10-07T01:34:51.223Z,13.47
2018-10-07T01:37:55.492Z,13.46
2018-10-07T01:41:00.112Z,13.45
2018-10-07T01:44:04.559Z,13.43
2018-10-07T01:47:08.986Z,13.48
2018-10-07T01:50:13.336Z,13.42
2018-10-07T01:53:17.748Z,13.59
2018-10-07T01:56:22.073Z,13.66
2018-10-07T01:59:26.438Z,13.46
2018-10-07T02:02:30.719Z,13.43
2018-10-07T02:05:36.584Z,13.45
2018-10-07T02:08:40.944Z,13.35
2018-10-07T02:11:46.580Z,13.32
2018-10-07T02:14:50.964Z,13.29
2018-10-07T02:17:55.296Z,13.32
2018-10-07T02:20:59.625Z,13.36
2018-10-07T02:24:03.990Z,13.41
2018-10-07T02:27:08.369Z,13.42
2018-10-07T02:30:12.681Z,13.49
2018-10-07T02:33:17.013Z,13.41
2018-10-07T02:36:21.349Z,13.41
2018-10-07T02:39:25.677Z,13.42
2018-10-07T02:42:29.997Z,13.43
2018-10-07T02:45:34.361Z,13.47
2018-10-07T02:48:38.691Z,13.49
2018-10-07T02:51:43.397Z,13.47
2018-10-07T02:54:47.705Z,13.56
2018-10-07T02:57:53.539Z,13.51
2018-10-07T03:00:57.832Z,13.50
2018-10-07T03:04:02.137Z,13.51
2018-10-07T03:07:06.614Z,13.53
2018-10-07T03:10:11.105Z,13.50
2018-10-07T03:13:15.918Z,13.54
2018-10-07T03:16:20.224Z,13.52
2018-10-07T03:19:24.804Z,13.49
2018-10-07T03:22:29.130Z,13.48
2018-10-07T03:25:33.433Z,13.47
2018-10-07T03:28:37.756Z,13.46
2018-10-07T03:31:42.185Z,13.44
2018-10-07T03:34:46.589Z,13.43
2018-10-07T03:37:50.931Z,13.44
2018-10-07T03:40:55.382Z,13.48
2018-10-07T03:43:59.796Z,13.49
2018-10-07T03:47:04.129Z,13.47
2018-10-07T03:50:08.498Z,13.47
2018-10-07T03:53:12.969Z,13.49
2018-10-07T03:56:17.316Z,13.49
2018-10-07T03:59:21.686Z,13.45
2018-10-07T04:02:26.101Z,13.45
2018-10-07T04:05:30.417Z,13.43
2018-10-07T04:08:34.742Z,13.41
2018-10-07T04:11:39.482Z,13.41
2018-10-07T04:14:43.828Z,13.41
2018-10-07T04:17:48.165Z,13.41
2018-10-07T04:20:52.542Z,13.44
2018-10-07T04:23:56.853Z,13.44
2018-10-07T04:27:01.183Z,13.41
2018-10-07T04:30:05.533Z,13.40
2018-10-07T04:33:09.853Z,13.40
2018-10-07T04:36:14.256Z,13.42
2018-10-07T04:39:18.676Z,13.42
2018-10-07T04:42:23.432Z,13.45
2018-10-07T04:45:27.987Z,13.43
2018-10-07T04:48:32.478Z,13.43
2018-10-07T04:51:36.969Z,13.43
2018-10-07T04:54:41.326Z,13.40
2018-10-07T04:57:45.860Z,13.38
2018-10-07T05:00:50.173Z,13.42
2018-10-07T05:03:54.492Z,13.38
2018-10-07T05:06:59.837Z,13.42
2018-10-07T05:10:21.024Z,13.37
2018-10-07T05:13:31.953Z,13.40
2018-10-07T05:16:46.454Z,13.41
2018-10-07T05:19:50.978Z,13.45
2018-10-07T05:22:55.370Z,13.54
2018-10-07T05:25:59.832Z,13.44
2018-10-07T05:29:04.125Z,13.47
2018-10-07T05:32:08.501Z,13.61
2018-10-07T05:35:12.829Z,13.73
2018-10-07T05:38:17.152Z,13.77
2018-10-07T05:41:21.488Z,13.52
2018-10-07T05:44:25.861Z,13.51
2018-10-07T05:47:30.813Z,13.55
2018-10-07T05:50:35.197Z,13.40
2018-10-07T05:53:39.560Z,13.52
2018-10-07T05:56:43.876Z,13.47
2018-10-07T05:59:48.209Z,13.38
2018-10-07T06:02:54.246Z,13.40
2018-10-07T06:05:59.453Z,13.43
2018-10-07T06:09:04.707Z,13.46
2018-10-07T06:12:09.229Z,13.51
2018-10-07T06:15:35.724Z,13.63
2018-10-07T06:18:40.168Z,13.70
2018-10-07T06:21:45.213Z,13.79
2018-10-07T06:24:49.667Z,13.90
2018-10-07T06:27:54.410Z,14.02
2018-10-07T06:30:58.951Z,14.10
2018-10-07T06:34:03.313Z,14.21
2018-10-07T06:37:10.848Z,14.28
2018-10-07T06:40:15.329Z,14.36
2018-10-07T06:43:19.815Z,14.44
2018-10-07T06:46:24.197Z,14.53
2018-10-07T06:49:28.505Z,14.54
2018-10-07T06:52:33.053Z,14.59
2018-10-07T06:55:37.777Z,14.59
2018-10-07T06:58:42.177Z,14.58
2018-10-07T07:01:47.076Z,14.65
2018-10-07T07:04:52.120Z,14.58
2018-10-07T07:07:56.494Z,14.62
2018-10-07T07:11:00.874Z,14.65
2018-10-07T07:14:05.344Z,14.68
2018-10-07T07:17:09.872Z,14.70
2018-10-07T07:20:13.986Z,14.73
2018-10-07T07:23:18.377Z,14.81
2018-10-07T07:26:23.009Z,14.91
2018-10-07T07:29:27.335Z,14.99
2018-10-07T07:32:31.681Z,15.14
2018-10-07T07:35:36.564Z,15.26
2018-10-07T07:38:41.049Z,15.31
2018-10-07T07:41:45.724Z,15.29
2018-10-07T07:44:50.149Z,15.28
2018-10-07T07:47:55.704Z,15.35
2018-10-07T07:51:00.097Z,15.39
2018-10-07T07:54:04.465Z,15.56
2018-10-07T07:57:08.870Z,15.79
2018-10-07T08:00:13.317Z,15.99
2018-10-07T08:03:17.724Z,16.26
2018-10-07T08:06:22.203Z,16.55
2018-10-07T08:09:26.555Z,16.86
2018-10-07T08:12:31.117Z,17.12
2018-10-07T08:15:35.584Z,17.34
2018-10-07T08:18:40.156Z,17.53
2018-10-07T08:21:44.642Z,17.76
2018-10-07T08:24:49.004Z,17.90
2018-10-07T08:27:53.413Z,18.06
2018-10-07T08:30:57.848Z,18.26
2018-10-07T08:34:02.327Z,18.46
2018-10-07T08:37:06.887Z,18.57
2018-10-07T08:40:11.341Z,18.67
2018-10-07T08:43:16.073Z,18.70
2018-10-07T08:46:20.458Z,18.63
2018-10-07T08:49:25.779Z,18.84
2018-10-07T08:52:30.174Z,19.10
2018-10-07T08:55:34.730Z,19.14
2018-10-07T08:58:39.108Z,19.33
2018-10-07T09:01:43.965Z,19.41
2018-10-07T09:04:48.505Z,19.64
2018-10-07T09:07:52.916Z,19.72
2018-10-07T09:10:58.020Z,19.67
2018-10-07T09:14:02.515Z,19.79
2018-10-07T09:17:06.994Z,19.83
2018-10-07T09:20:11.472Z,19.78
2018-10-07T09:23:15.879Z,19.88
2018-10-07T09:26:20.255Z,19.84
2018-10-07T09:29:24.635Z,20.03
2018-10-07T09:32:29.099Z,20.48
2018-10-07T09:35:33.676Z,20.77
2018-10-07T09:38:38.121Z,21.04
2018-10-07T09:41:42.476Z,21.03
2018-10-07T09:44:46.904Z,20.97
2018-10-07T09:47:51.433Z,21.20
2018-10-07T09:50:55.891Z,21.38
2018-10-07T09:54:00.257Z,21.41
2018-10-07T09:57:04.638Z,21.30
2018-10-07T10:00:09.221Z,20.96
2018-10-07T10:03:13.640Z,20.76
2018-10-07T10:06:18.387Z,20.75
2018-10-07T10:09:22.793Z,20.71
2018-10-07T10:12:27.241Z,20.84
2018-10-07T10:15:31.617Z,20.74
2018-10-07T10:18:55.439Z,20.58
2018-10-07T10:22:17.997Z,20.66
2018-10-07T10:25:31.026Z,20.91
2018-10-07T10:29:12.468Z,21.15
2018-10-07T10:32:29.797Z,21.10
2018-10-07T10:36:18.834Z,21.12
2018-10-07T10:40:27.914Z,21.14
2018-10-07T10:43:43.668Z,20.94
2018-10-07T10:46:59.606Z,20.69
2018-10-07T10:50:17.352Z,20.90
2018-10-07T10:53:35.721Z,21.06
2018-10-07T10:57:54.983Z,21.23
2018-10-07T11:01:05.370Z,21.36
2018-10-07T11:04:22.380Z,21.28
2018-10-07T11:07:36.541Z,21.08
2018-10-07T11:10:52.174Z,21.08
2018-10-07T11:14:06.817Z,20.97
2018-10-07T11:17:27.362Z,20.94
2018-10-07T11:21:47.264Z,20.80
2018-10-07T11:25:04.185Z,20.57
2018-10-07T11:28:21.136Z,20.30
2018-10-07T11:31:43.138Z,20.22
2018-10-07T11:35:26.783Z,20.07
2018-10-07T11:38:51.285Z,19.95
2018-10-07T11:42:05.442Z,19.78
2018-10-07T11:45:17.272Z,19.60
2018-10-07T11:48:41.978Z,19.57
2018-10-07T11:52:04.968Z,19.56
2018-10-07T11:55:08.107Z,19.45
2018-10-07T11:58:12.483Z,19.38
2018-10-07T12:01:16.834Z,19.47
2018-10-07T12:04:21.244Z,19.57
2018-10-07T12:07:26.755Z,19.70
2018-10-07T12:10:31.114Z,19.88
2018-10-07T12:13:35.700Z,19.93
2018-10-07T12:16:40.169Z,20.01
2018-10-07T12:19:44.665Z,20.00
2018-10-07T12:22:48.960Z,19.94
2018-10-07T12:25:53.324Z,19.77
2018-10-07T12:28:57.949Z,19.58
2018-10-07T12:32:02.221Z,19.39
2018-10-07T12:35:06.636Z,19.26
2018-10-07T12:38:10.960Z,19.08
2018-10-07T12:41:15.589Z,19.01
2018-10-07T12:44:20.041Z,18.96
2018-10-07T12:47:24.581Z,18.90
2018-10-07T12:50:28.936Z,18.86
2018-10-07T12:53:33.402Z,18.83
2018-10-07T12:56:38.006Z,18.76
2018-10-07T12:59:42.393Z,18.74
2018-10-07T13:02:46.764Z,18.79
2018-10-07T13:05:51.060Z,18.93
2018-10-07T13:08:55.362Z,19.05
2018-10-07T13:11:59.897Z,19.16
2018-10-07T13:15:04.660Z,19.24
2018-10-07T13:18:09.049Z,19.33
2018-10-07T13:21:13.445Z,19.46
2018-10-07T13:24:17.814Z,19.59
2018-10-07T13:27:22.129Z,19.86
2018-10-07T13:30:26.628Z,20.10
2018-10-07T13:33:31.000Z,20.34
2018-10-07T13:36:35.312Z,20.29
2018-10-07T13:39:39.630Z,20.06
2018-10-07T13:42:43.997Z,19.83
2018-10-07T13:45:48.345Z,19.52
2018-10-07T13:48:52.635Z,19.21
2018-10-07T13:51:56.928Z,19.00
2018-10-07T13:55:01.245Z,18.87
2018-10-07T13:58:05.751Z,18.79
2018-10-07T14:01:10.989Z,18.74
2018-10-07T14:04:15.425Z,18.66
2018-10-07T14:07:19.904Z,18.60
2018-10-07T14:10:24.198Z,18.56
2018-10-07T14:13:28.797Z,18.58
2018-10-07T14:16:33.093Z,18.49
2018-10-07T14:19:37.386Z,18.43
2018-10-07T14:22:42.021Z,18.37
2018-10-07T14:25:46.513Z,18.30
2018-10-07T14:28:51.149Z,18.21
2018-10-07T14:31:55.653Z,18.19
2018-10-07T14:35:00.136Z,18.14
2018-10-07T14:38:04.537Z,18.19
2018-10-07T14:41:09.068Z,18.05
2018-10-07T14:44:13.403Z,17.91
2018-10-07T14:47:17.729Z,17.82
2018-10-07T14:50:28.639Z,17.76
2018-10-07T14:53:32.941Z,17.60
2018-10-07T14:56:37.425Z,17.56
2018-10-07T14:59:41.821Z,17.43
2018-10-07T15:02:46.280Z,17.33
2018-10-07T15:05:50.940Z,17.27
2018-10-07T15:08:55.312Z,17.17
2018-10-07T15:11:59.896Z,17.15
2018-10-07T15:15:04.402Z,17.07
2018-10-07T15:18:08.833Z,17.05
2018-10-07T15:21:13.217Z,17.06
2018-10-07T15:24:17.640Z,17.01
2018-10-07T15:27:22.145Z,17.04
2018-10-07T15:30:26.600Z,17.01
2018-10-07T15:33:31.414Z,16.96
2018-10-07T15:36:35.931Z,16.95
2018-10-07T15:39:40.498Z,16.90
2018-10-07T15:42:44.995Z,16.94
2018-10-07T15:45:49.400Z,16.89
2018-10-07T15:48:53.837Z,16.85
2018-10-07T15:51:58.274Z,16.94
2018-10-07T15:55:02.690Z,16.90
2018-10-07T15:58:07.118Z,16.85
2018-10-07T16:01:11.532Z,16.76
2018-10-07T16:04:16.073Z,16.78
2018-10-07T16:07:20.460Z,16.69
2018-10-07T16:10:24.782Z,16.61
2018-10-07T16:13:29.118Z,16.51
2018-10-07T16:16:33.530Z,16.54
2018-10-07T16:19:37.861Z,16.50
2018-10-07T16:22:42.307Z,16.37
2018-10-07T16:25:46.771Z,16.33
2018-10-07T16:28:51.204Z,16.30
2018-10-07T16:31:55.861Z,16.12
2018-10-07T16:35:00.429Z,16.13
2018-10-07T16:38:04.843Z,16.03
2018-10-07T16:41:12.196Z,15.96
2018-10-07T16:44:17.611Z,15.95
2018-10-07T16:47:22.256Z,15.91
2018-10-07T16:50:26.689Z,15.80
2018-10-07T16:53:31.255Z,15.76
2018-10-07T16:56:36.773Z,15.68
2018-10-07T16:59:41.359Z,15.59
2018-10-07T17:02:45.789Z,15.48
2018-10-07T17:05:51.061Z,15.38
2018-10-07T17:08:55.582Z,15.29
2018-10-07T17:12:00.136Z,15.21
2018-10-07T17:15:04.589Z,15.12
2018-10-07T17:18:09.327Z,15.07
2018-10-07T17:21:13.657Z,14.90
2018-10-07T17:24:18.062Z,14.78
2018-10-07T17:27:22.524Z,14.60
2018-10-07T17:30:26.884Z,14.39
2018-10-07T17:33:31.317Z,14.32
2018-10-07T17:36:35.761Z,14.14
2018-10-07T17:39:40.144Z,14.03
2018-10-07T17:42:44.885Z,13.91
2018-10-07T17:45:49.452Z,13.75
2018-10-07T17:48:54.582Z,13.74
2018-10-07T17:51:59.912Z,13.70
2018-10-07T17:55:04.853Z,13.57
2018-10-07T17:58:09.388Z,13.50
2018-10-07T18:01:14.140Z,13.40
2018-10-07T18:04:18.542Z,13.34
2018-10-07T18:07:23.178Z,13.28
2018-10-07T18:10:27.698Z,13.17
2018-10-07T18:13:32.117Z,13.10
2018-10-07T18:16:36.583Z,13.04
2018-10-07T18:19:40.996Z,12.97
2018-10-07T18:22:45.414Z,12.91
2018-10-07T18:25:49.902Z,12.91
2018-10-07T18:28:54.455Z,12.85
2018-10-07T18:31:58.949Z,12.85
2018-10-07T18:35:03.565Z,12.80
2018-10-07T18:38:07.964Z,12.77
2018-10-07T18:41:12.654Z,12.78
2018-10-07T18:44:17.083Z,12.82
2018-10-07T18:47:21.517Z,12.84
2018-10-07T18:50:26.737Z,12.84
2018-10-07T18:53:31.263Z,12.85
2018-10-07T18:56:35.885Z,12.80
2018-10-07T18:59:40.321Z,12.88
2018-10-07T19:02:44.886Z,12.89
2018-10-07T19:05:49.159Z,12.83
2018-10-07T19:08:53.614Z,12.99
2018-10-07T19:11:58.040Z,12.94
2018-10-07T19:15:02.699Z,12.83
2018-10-07T19:18:07.654Z,12.73
2018-10-07T19:21:12.244Z,12.70
2018-10-07T19:24:16.687Z,12.63
2018-10-07T19:27:21.278Z,12.61
2018-10-07T19:30:25.941Z,12.73
2018-10-07T19:33:30.326Z,12.80
2018-10-07T19:36:34.878Z,12.66
2018-10-07T19:39:40.796Z,12.56
2018-10-07T19:42:46.475Z,12.40
2018-10-07T19:45:51.378Z,12.26
2018-10-07T19:48:57.003Z,12.27
2018-10-07T19:52:03.513Z,12.16
2018-10-07T19:55:09.904Z,12.08
2018-10-07T19:58:15.278Z,11.99
2018-10-07T20:01:22.114Z,11.94
2018-10-07T20:04:26.436Z,11.88
2018-10-07T20:07:31.079Z,11.82
2018-10-07T20:10:40.266Z,11.75
2018-10-07T20:13:44.958Z,11.68
2018-10-07T20:16:49.512Z,11.58
2018-10-07T20:19:53.930Z,11.52
2018-10-07T20:22:58.419Z,11.50
2018-10-07T20:26:03.725Z,11.50
2018-10-07T20:29:09.006Z,11.49
2018-10-07T20:32:13.534Z,11.62
2018-10-07T20:35:18.351Z,11.76
2018-10-07T20:38:22.897Z,11.74
2018-10-07T20:41:28.109Z,11.55
2018-10-07T20:44:33.299Z,11.46
2018-10-07T20:47:38.765Z,11.42
2018-10-07T20:50:43.229Z,11.35
2018-10-07T20:53:50.535Z,11.26
2018-10-07T20:56:55.143Z,11.27
2018-10-07T20:59:59.825Z,11.31
2018-10-07T21:03:08.265Z,11.20
2018-10-07T21:06:13.756Z,11.11
2018-10-07T21:09:18.228Z,11.07
2018-10-07T21:12:23.077Z,11.07
2018-10-07T21:15:27.475Z,11.07
2018-10-07T21:18:32.044Z,11.10
2018-10-07T21:21:36.997Z,11.12
2018-10-07T21:24:41.534Z,11.14
2018-10-07T21:27:45.937Z,11.13
2018-10-07T21:30:52.828Z,11.26
2018-10-07T21:33:57.358Z,11.20
2018-10-07T21:37:02.418Z,11.18
2018-10-07T21:40:09.368Z,11.16
2018-10-07T21:43:14.617Z,11.16
2018-10-07T21:46:18.800Z,11.13
2018-10-07T21:49:24.259Z,11.12
2018-10-07T21:52:28.737Z,11.25
2018-10-07T21:55:33.566Z,11.39
2018-10-07T21:58:38.124Z,11.38
2018-10-07T22:01:43.124Z,11.33
2018-10-07T22:04:47.698Z,11.28
2018-10-07T22:07:52.145Z,11.18
2018-10-07T22:10:57.433Z,11.10
2018-10-07T22:14:01.833Z,11.02
2018-10-07T22:17:06.308Z,11.01
2018-10-07T22:20:11.041Z,11.04
2018-10-07T22:23:15.415Z,11.00
2018-10-07T22:26:19.837Z,10.98
2018-10-07T22:29:24.285Z,11.04
2018-10-07T22:32:28.665Z,11.07
2018-10-07T22:35:33.426Z,11.13
2018-10-07T22:38:39.010Z,11.16
2018-10-07T22:41:43.429Z,11.20
2018-10-07T22:44:47.812Z,11.22
2018-10-07T22:47:52.968Z,11.33
2018-10-07T22:50:57.414Z,11.37
2018-10-07T22:54:01.813Z,11.44
2018-10-07T22:57:07.889Z,11.58
2018-10-07T23:00:13.333Z,11.67
2018-10-07T23:03:20.933Z,11.69
2018-10-07T23:06:25.325Z,11.73
2018-10-07T23:09:30.241Z,11.79
2018-10-07T23:12:34.619Z,11.82
2018-10-07T23:19:15.205Z,11.90
2018-10-07T23:22:19.699Z,11.89
2018-10-07T23:25:25.364Z,11.87
2018-10-07T23:28:29.512Z,11.83
2018-10-07T23:31:33.904Z,11.74
2018-10-07T23:34:38.342Z,11.63
2018-10-07T23:37:44.925Z,11.59
2018-10-07T23:40:52.973Z,11.59
2018-10-07T23:43:57.102Z,11.49
2018-10-07T23:47:01.510Z,11.62
2018-10-07T23:50:05.975Z,11.56
2018-10-07T23:53:10.945Z,11.53
2018-10-07T23:56:16.133Z,11.23
2018-10-07T23:59:21.024Z,11.32
